createdAt,value
2022-11-28T00:01:37.373Z,2.80
2022-11-28T00:04:07.131Z,2.70
2022-11-28T00:06:38.578Z,2.70
2022-11-28T00:09:07.344Z,2.70
2022-11-28T00:11:36.957Z,2.70
2022-11-28T00:14:05.384Z,2.70
2022-11-28T00:16:34.247Z,2.70
2022-11-28T00:19:03.187Z,2.60
2022-11-28T00:21:32.277Z,2.60
2022-11-28T00:24:01.613Z,2.50
2022-11-28T00:26:32.022Z,2.50
2022-11-28T00:29:01.924Z,2.50
2022-11-28T00:31:34.365Z,2.50
2022-11-28T00:34:02.918Z,2.50
2022-11-28T00:36:32.172Z,2.50
2022-11-28T00:39:25.987Z,2.50
2022-11-28T00:41:54.229Z,2.50
2022-11-28T00:44:24.760Z,2.40
2022-11-28T00:46:53.010Z,2.40
2022-11-28T00:49:46.311Z,2.40
2022-11-28T00:52:14.587Z,2.30
2022-11-28T00:54:43.013Z,2.30
2022-11-28T00:57:11.489Z,2.30
2022-11-28T00:59:41.438Z,2.30
2022-11-28T01:02:09.901Z,2.30
2022-11-28T01:04:38.259Z,2.30
2022-11-28T01:07:06.737Z,2.30
2022-11-28T01:09:35.100Z,2.30
2022-11-28T01:12:03.554Z,2.30
2022-11-28T01:14:31.880Z,2.30
2022-11-28T01:17:01.647Z,2.40
2022-11-28T01:19:29.968Z,2.30
2022-11-28T01:21:58.217Z,2.30
2022-11-28T01:24:26.466Z,2.30
2022-11-28T01:26:54.744Z,2.30
2022-11-28T01:29:23.006Z,2.30
2022-11-28T01:31:51.330Z,2.30
2022-11-28T01:34:21.060Z,2.20
2022-11-28T01:36:49.310Z,2.20
2022-11-28T01:39:17.571Z,2.20
2022-11-28T01:41:45.988Z,2.20
2022-11-28T01:48:04.967Z,2.20
2022-11-28T01:50:36.390Z,2.20
2022-11-28T01:53:07.287Z,2.20
2022-11-28T01:55:41.215Z,2.20
2022-11-28T01:58:10.697Z,2.20
2022-11-28T02:00:39.070Z,2.20
2022-11-28T02:03:12.781Z,2.20
2022-11-28T02:05:42.694Z,2.10
2022-11-28T02:08:11.795Z,2.10
2022-11-28T02:10:53.025Z,2.20
2022-11-28T02:13:32.059Z,2.10
2022-11-28T02:16:15.672Z,2.20
2022-11-28T02:18:58.358Z,2.20
2022-11-28T02:21:56.247Z,2.20
2022-11-28T02:24:57.224Z,2.20
2022-11-28T02:27:46.209Z,2.10
2022-11-28T02:30:34.982Z,2.10
2022-11-28T02:33:12.730Z,2.20
2022-11-28T02:35:53.828Z,2.20
2022-11-28T02:38:28.778Z,2.20
2022-11-28T02:41:03.568Z,2.20
2022-11-28T02:43:37.736Z,2.20
2022-11-28T02:46:11.944Z,2.20
2022-11-28T02:48:47.192Z,2.20
2022-11-28T02:51:21.567Z,2.20
2022-11-28T02:53:52.074Z,2.10
2022-11-28T02:56:20.428Z,2.20
2022-11-28T02:58:48.663Z,2.10
2022-11-28T03:01:20.896Z,2.20
2022-11-28T03:04:13.843Z,2.20
2022-11-28T03:06:51.772Z,2.20
2022-11-28T03:09:56.152Z,2.20
2022-11-28T03:12:32.970Z,2.20
2022-11-28T03:15:04.886Z,2.20
2022-11-28T03:17:40.943Z,2.20
2022-11-28T03:20:24.066Z,2.20
2022-11-28T03:23:05.392Z,2.20
2022-11-28T03:25:38.759Z,2.20
2022-11-28T03:28:12.864Z,2.30
2022-11-28T03:30:46.721Z,2.30
2022-11-28T03:33:17.200Z,2.20
2022-11-28T03:35:56.472Z,2.20
2022-11-28T03:38:30.838Z,2.20
2022-11-28T03:41:04.456Z,2.10
2022-11-28T03:43:37.572Z,2.10
2022-11-28T03:46:35.687Z,2.10
2022-11-28T03:49:07.118Z,2.20
2022-11-28T03:51:39.943Z,2.20
2022-11-28T03:54:17.517Z,2.10
2022-11-28T03:56:53.300Z,2.10
2022-11-28T03:59:27.586Z,2.10
2022-11-28T04:02:03.462Z,2.00
2022-11-28T04:04:37.980Z,2.00
2022-11-28T04:07:20.851Z,2.00
2022-11-28T04:09:51.889Z,2.00
2022-11-28T04:12:28.763Z,2.00
2022-11-28T04:15:01.729Z,2.10
2022-11-28T04:17:36.718Z,2.10
2022-11-28T04:20:08.789Z,2.10
2022-11-28T04:22:43.520Z,2.10
2022-11-28T04:25:16.798Z,2.10
2022-11-28T04:27:50.824Z,2.00
2022-11-28T04:30:19.216Z,2.10
2022-11-28T04:32:50.566Z,2.10
2022-11-28T04:35:24.736Z,2.10
2022-11-28T04:38:19.602Z,2.00
2022-11-28T04:41:17.875Z,2.10
2022-11-28T04:43:51.874Z,2.10
2022-11-28T04:46:27.129Z,2.10
2022-11-28T04:48:55.427Z,2.10
2022-11-28T04:51:28.626Z,2.10
2022-11-28T04:54:06.340Z,2.10
2022-11-28T04:56:42.310Z,2.10
2022-11-28T04:59:12.181Z,2.10
2022-11-28T05:01:44.703Z,2.20
2022-11-28T05:04:14.568Z,2.10
2022-11-28T05:06:42.829Z,2.10
2022-11-28T05:09:13.176Z,2.20
2022-11-28T05:11:41.812Z,2.10
2022-11-28T05:14:10.137Z,2.20
2022-11-28T05:16:38.473Z,2.20
2022-11-28T05:19:12.203Z,2.20
2022-11-28T05:21:40.406Z,2.20
2022-11-28T05:24:09.625Z,2.20
2022-11-28T05:26:42.717Z,2.20
2022-11-28T05:29:10.924Z,2.30
2022-11-28T05:32:03.670Z,2.30
2022-11-28T05:34:32.220Z,2.30
2022-11-28T05:37:00.503Z,2.30
2022-11-28T05:39:28.763Z,2.30
2022-11-28T05:41:58.817Z,2.40
2022-11-28T05:44:27.385Z,2.40
2022-11-28T05:46:55.596Z,2.40
2022-11-28T05:49:25.581Z,2.40
2022-11-28T05:51:53.891Z,2.50
2022-11-28T05:54:22.083Z,2.40
2022-11-28T05:56:50.265Z,2.40
2022-11-28T05:59:19.898Z,2.40
2022-11-28T06:01:48.157Z,2.40
2022-11-28T06:04:16.776Z,2.40
2022-11-28T06:06:45.182Z,2.40
2022-11-28T06:09:14.072Z,2.40
2022-11-28T06:11:43.522Z,2.40
2022-11-28T06:14:12.464Z,2.50
2022-11-28T06:16:43.635Z,2.50
2022-11-28T06:19:13.647Z,2.40
2022-11-28T06:21:42.120Z,2.40
2022-11-28T06:24:11.150Z,2.40
2022-11-28T06:26:39.393Z,2.30
2022-11-28T06:29:07.780Z,2.30
2022-11-28T06:31:36.329Z,2.30
2022-11-28T06:34:12.634Z,2.30
2022-11-28T06:36:41.196Z,2.30
2022-11-28T06:39:11.376Z,2.30
2022-11-28T06:41:39.625Z,2.30
2022-11-28T06:44:07.864Z,2.30
2022-11-28T06:46:36.077Z,2.40
2022-11-28T06:49:04.359Z,2.40
2022-11-28T06:51:33.971Z,2.40
2022-11-28T06:54:02.193Z,2.40
2022-11-28T06:56:46.062Z,2.40
2022-11-28T06:59:14.335Z,2.40
2022-11-28T07:01:42.637Z,2.40
2022-11-28T07:04:11.264Z,2.40
2022-11-28T07:06:40.850Z,2.50
2022-11-28T07:09:09.052Z,2.50
2022-11-28T07:11:37.306Z,2.50
2022-11-28T07:14:05.802Z,2.60
2022-11-28T07:16:35.313Z,2.60
2022-11-28T07:19:03.954Z,2.70
2022-11-28T07:21:59.394Z,2.90
2022-11-28T07:24:27.958Z,2.90
2022-11-28T07:26:56.540Z,3.00
2022-11-28T07:29:24.906Z,3.00
2022-11-28T07:31:53.358Z,3.00
2022-11-28T07:34:21.674Z,3.00
2022-11-28T07:36:49.982Z,3.00
2022-11-28T07:39:19.555Z,3.00
2022-11-28T07:41:47.777Z,3.00
2022-11-28T07:44:17.910Z,3.00
2022-11-28T07:46:47.284Z,3.00
2022-11-28T07:49:16.255Z,3.10
2022-11-28T07:51:44.497Z,3.20
2022-11-28T07:54:12.791Z,3.20
2022-11-28T07:57:11.820Z,3.20
2022-11-28T07:59:30.670Z,3.10
2022-11-28T08:01:59.337Z,3.10
2022-11-28T08:04:27.685Z,3.10
2022-11-28T08:06:57.018Z,3.20
2022-11-28T08:09:25.238Z,3.20
2022-11-28T08:12:20.575Z,3.30
2022-11-28T08:14:48.792Z,3.30
2022-11-28T08:17:17.067Z,3.40
2022-11-28T08:19:45.299Z,3.50
2022-11-28T08:22:13.545Z,3.60
2022-11-28T08:24:42.087Z,3.70
2022-11-28T08:27:10.632Z,3.70
2022-11-28T08:29:40.437Z,3.80
2022-11-28T08:32:09.084Z,3.80
2022-11-28T08:34:37.628Z,3.80
2022-11-28T08:37:05.883Z,3.80
2022-11-28T08:39:34.333Z,3.90
2022-11-28T08:42:02.591Z,3.80
2022-11-28T08:44:31.026Z,3.90
2022-11-28T08:47:26.665Z,4.00
2022-11-28T08:50:20.095Z,4.10
2022-11-28T08:52:48.296Z,3.90
2022-11-28T08:55:16.583Z,3.90
2022-11-28T08:57:44.776Z,3.80
2022-11-28T09:00:14.494Z,3.70
2022-11-28T09:02:44.131Z,3.70
2022-11-28T09:05:12.356Z,3.70
2022-11-28T09:07:40.604Z,3.70
2022-11-28T09:10:09.865Z,3.80
2022-11-28T09:12:38.056Z,3.80
2022-11-28T09:15:07.412Z,3.90
2022-11-28T09:17:35.722Z,3.90
2022-11-28T09:20:30.093Z,3.90
2022-11-28T09:22:58.390Z,3.80
2022-11-28T09:25:26.594Z,3.80
2022-11-28T09:27:54.979Z,3.80
2022-11-28T09:30:23.419Z,3.80
2022-11-28T09:32:57.423Z,3.90
2022-11-28T09:35:25.775Z,4.00
2022-11-28T09:37:55.299Z,4.30
2022-11-28T09:40:32.416Z,4.60
2022-11-28T09:43:02.819Z,4.90
2022-11-28T09:45:33.206Z,5.20
2022-11-28T09:48:18.166Z,5.30
2022-11-28T09:50:47.989Z,5.60
2022-11-28T09:53:24.495Z,5.60
2022-11-28T09:55:55.697Z,5.50
2022-11-28T09:58:30.883Z,5.50
2022-11-28T10:01:08.056Z,5.40
2022-11-28T10:04:04.103Z,5.50
2022-11-28T10:06:37.013Z,5.70
2022-11-28T10:09:27.565Z,5.80
2022-11-28T10:12:08.051Z,5.90
2022-11-28T10:15:04.478Z,5.90
2022-11-28T10:17:43.329Z,5.80
2022-11-28T10:20:17.100Z,5.90
2022-11-28T10:22:49.480Z,5.80
2022-11-28T10:25:23.394Z,5.70
2022-11-28T10:27:52.292Z,5.70
2022-11-28T10:30:23.921Z,5.80
2022-11-28T10:33:01.113Z,5.80
2022-11-28T10:35:35.297Z,5.70
2022-11-28T10:38:04.140Z,5.70
2022-11-28T10:40:44.055Z,5.80
2022-11-28T10:43:25.028Z,5.70
2022-11-28T10:46:03.352Z,5.80
2022-11-28T10:48:42.122Z,5.90
2022-11-28T10:51:24.841Z,6.00
2022-11-28T10:54:11.347Z,6.10
2022-11-28T10:56:49.099Z,6.10
2022-11-28T10:59:29.617Z,6.10
2022-11-28T11:01:58.940Z,6.00
2022-11-28T11:04:28.927Z,5.80
2022-11-28T11:07:29.549Z,5.60
2022-11-28T11:10:01.814Z,5.50
2022-11-28T11:12:56.128Z,5.50
2022-11-28T11:15:31.077Z,5.50
2022-11-28T11:18:00.835Z,5.40
2022-11-28T11:20:37.228Z,5.50
2022-11-28T11:23:14.890Z,5.50
2022-11-28T11:25:53.141Z,5.60
2022-11-28T11:28:40.035Z,5.70
2022-11-28T11:31:18.384Z,5.80
2022-11-28T11:33:47.384Z,5.70
2022-11-28T11:36:27.620Z,5.50
2022-11-28T11:39:23.370Z,5.30
2022-11-28T11:41:53.707Z,5.20
2022-11-28T11:44:29.362Z,5.10
2022-11-28T11:47:00.748Z,5.10
2022-11-28T11:49:30.924Z,4.90
2022-11-28T11:52:00.538Z,4.90
2022-11-28T11:54:29.275Z,4.80
2022-11-28T11:57:25.103Z,4.80
2022-11-28T11:59:54.172Z,4.80
2022-11-28T12:02:28.930Z,4.80
2022-11-28T12:05:03.032Z,4.90
2022-11-28T12:07:39.910Z,5.00
2022-11-28T12:10:13.782Z,5.00
2022-11-28T12:12:42.363Z,5.00
2022-11-28T12:15:19.321Z,4.90
2022-11-28T12:17:59.350Z,4.80
2022-11-28T12:20:39.141Z,4.70
2022-11-28T12:23:21.877Z,4.70
2022-11-28T12:25:54.719Z,4.60
2022-11-28T12:28:37.846Z,4.50
2022-11-28T12:31:13.781Z,4.50
2022-11-28T12:33:53.864Z,4.50
2022-11-28T12:36:28.018Z,4.50
2022-11-28T12:39:16.055Z,4.50
2022-11-28T12:42:06.764Z,4.50
2022-11-28T12:44:52.497Z,4.60
2022-11-28T12:47:33.013Z,4.60
2022-11-28T12:50:10.853Z,4.60
2022-11-28T12:52:45.597Z,4.70
2022-11-28T12:55:24.487Z,4.70
2022-11-28T12:58:05.559Z,4.70
2022-11-28T13:00:39.663Z,4.70
2022-11-28T13:03:20.372Z,4.70
2022-11-28T13:05:58.884Z,4.70
2022-11-28T13:08:49.015Z,4.60
2022-11-28T13:11:30.058Z,4.70
2022-11-28T13:14:06.445Z,4.60
2022-11-28T13:16:57.720Z,4.70
2022-11-28T13:19:39.150Z,4.60
2022-11-28T13:22:15.192Z,4.60
2022-11-28T13:24:50.815Z,4.50
2022-11-28T13:27:32.508Z,4.50
2022-11-28T13:30:10.494Z,4.40
2022-11-28T13:32:46.614Z,4.40
2022-11-28T13:35:18.059Z,4.40
2022-11-28T13:40:49.008Z,4.30
2022-11-28T13:43:22.628Z,4.20
2022-11-28T13:45:52.567Z,4.20
2022-11-28T13:51:43.342Z,4.30
2022-11-28T13:54:49.015Z,4.20
2022-11-28T13:57:27.900Z,4.20
2022-11-28T14:00:07.483Z,4.20
2022-11-28T14:02:45.610Z,4.20
2022-11-28T14:05:34.124Z,4.20
2022-11-28T14:08:05.538Z,4.20
2022-11-28T14:10:50.740Z,4.20
2022-11-28T14:13:34.028Z,4.10
2022-11-28T14:16:18.130Z,4.10
2022-11-28T14:19:07.283Z,4.10
2022-11-28T14:21:50.790Z,4.10
2022-11-28T14:24:56.344Z,4.10
2022-11-28T14:27:27.731Z,4.10
2022-11-28T14:30:27.171Z,4.10
2022-11-28T14:32:59.373Z,4.10
2022-11-28T14:36:05.158Z,4.10
2022-11-28T14:38:44.826Z,4.10
2022-11-28T14:41:15.651Z,4.10
2022-11-28T14:43:46.297Z,4.00
2022-11-28T14:46:33.019Z,4.00
2022-11-28T14:49:22.581Z,4.00
2022-11-28T14:52:39.035Z,4.00
2022-11-28T14:55:19.432Z,3.90
2022-11-28T14:58:02.634Z,3.90
2022-11-28T15:00:36.190Z,3.80
2022-11-28T15:03:26.383Z,3.80
2022-11-28T15:05:59.267Z,3.80
2022-11-28T15:08:38.095Z,3.80
2022-11-28T15:11:30.397Z,3.80
2022-11-28T15:14:11.743Z,3.80
2022-11-28T15:16:49.628Z,3.80
2022-11-28T15:19:24.220Z,3.80
2022-11-28T15:21:54.800Z,3.80
2022-11-28T15:24:29.739Z,3.80
2022-11-28T15:26:59.572Z,3.80
2022-11-28T15:29:30.183Z,3.80
2022-11-28T15:31:59.651Z,3.80
2022-11-28T15:34:29.957Z,3.70
2022-11-28T15:37:00.694Z,3.80
2022-11-28T15:39:35.009Z,3.70
2022-11-28T15:42:05.441Z,3.70
2022-11-28T15:44:37.676Z,3.70
2022-11-28T15:47:06.582Z,3.70
2022-11-28T15:49:38.627Z,3.70
2022-11-28T15:52:07.008Z,3.70
2022-11-28T15:54:41.197Z,3.60
2022-11-28T15:57:20.039Z,3.60
2022-11-28T15:59:49.667Z,3.60
2022-11-28T16:02:26.633Z,3.70
2022-11-28T16:05:21.973Z,3.70
2022-11-28T16:07:52.068Z,3.60
2022-11-28T16:10:45.596Z,3.70
2022-11-28T16:13:24.810Z,3.70
2022-11-28T16:15:57.602Z,3.70
2022-11-28T16:18:28.372Z,3.70
2022-11-28T16:20:58.364Z,3.70
2022-11-28T16:23:31.438Z,3.60
2022-11-28T16:26:01.172Z,3.60
2022-11-28T16:28:32.468Z,3.60
2022-11-28T16:31:02.655Z,3.60
2022-11-28T16:33:39.696Z,3.50
2022-11-28T16:36:17.847Z,3.50
2022-11-28T16:38:47.264Z,3.50
2022-11-28T16:41:21.161Z,3.50
2022-11-28T16:43:51.283Z,3.50
2022-11-28T16:46:24.720Z,3.50
2022-11-28T16:48:57.283Z,3.50
2022-11-28T16:51:37.487Z,3.50
2022-11-28T16:54:30.465Z,3.50
2022-11-28T16:57:10.383Z,3.50
2022-11-28T16:59:38.687Z,3.40
2022-11-28T17:02:15.733Z,3.40
2022-11-28T17:04:44.998Z,3.40
2022-11-28T17:07:15.347Z,3.40
2022-11-28T17:09:44.556Z,3.30
2022-11-28T17:12:39.101Z,3.30
2022-11-28T17:15:09.007Z,3.30
2022-11-28T17:17:38.624Z,3.30
2022-11-28T17:20:08.272Z,3.30
2022-11-28T17:22:41.330Z,3.30
2022-11-28T17:25:16.591Z,3.30
2022-11-28T17:27:44.811Z,3.40
2022-11-28T17:30:15.288Z,3.40
2022-11-28T17:32:47.072Z,3.40
2022-11-28T17:35:20.869Z,3.40
2022-11-28T17:37:49.149Z,3.50
2022-11-28T17:40:36.823Z,3.40
2022-11-28T17:43:05.678Z,3.50
2022-11-28T17:45:36.940Z,3.50
2022-11-28T17:48:07.878Z,3.50
2022-11-28T17:50:36.469Z,3.50
2022-11-28T17:53:04.696Z,3.50
2022-11-28T17:55:32.886Z,3.50
2022-11-28T17:58:01.100Z,3.50
2022-11-28T18:00:29.880Z,3.50
2022-11-28T18:02:59.137Z,3.50
2022-11-28T18:05:28.761Z,3.50
2022-11-28T18:07:57.057Z,3.50
2022-11-28T18:10:25.307Z,3.50
2022-11-28T18:12:53.939Z,3.50
2022-11-28T18:15:22.202Z,3.50
2022-11-28T18:17:50.437Z,3.50
2022-11-28T18:20:45.579Z,3.50
2022-11-28T18:23:13.777Z,3.40
2022-11-28T18:25:46.086Z,3.50
2022-11-28T18:28:18.875Z,3.50
2022-11-28T18:30:48.722Z,3.50
2022-11-28T18:33:17.361Z,3.50
2022-11-28T18:35:46.981Z,3.50
2022-11-28T18:38:15.201Z,3.50
2022-11-28T18:40:43.443Z,3.50
2022-11-28T18:43:11.662Z,3.50
2022-11-28T18:45:39.967Z,3.40
2022-11-28T18:48:08.359Z,3.40
2022-11-28T18:50:36.773Z,3.50
2022-11-28T18:53:06.356Z,3.50
2022-11-28T18:55:34.569Z,3.50
2022-11-28T18:58:02.745Z,3.40
2022-11-28T19:00:31.013Z,3.50
2022-11-28T19:03:00.854Z,3.50
2022-11-28T19:05:29.308Z,3.50
2022-11-28T19:08:00.876Z,3.50
2022-11-28T19:10:30.479Z,3.50
2022-11-28T19:12:58.696Z,3.50
2022-11-28T19:15:26.912Z,3.50
2022-11-28T19:17:55.662Z,3.60
2022-11-28T19:20:24.686Z,3.60
2022-11-28T19:22:52.930Z,3.60
2022-11-28T19:25:21.189Z,3.50
2022-11-28T19:27:50.820Z,3.60
2022-11-28T19:30:19.290Z,3.50
2022-11-28T19:32:47.515Z,3.50
2022-11-28T19:35:15.836Z,3.40
2022-11-28T19:37:44.102Z,3.40
2022-11-28T19:40:12.996Z,3.40
2022-11-28T19:42:41.259Z,3.40
2022-11-28T19:45:12.135Z,3.30
2022-11-28T19:47:40.333Z,3.30
2022-11-28T19:50:10.292Z,3.30
2022-11-28T19:52:38.489Z,3.30
2022-11-28T19:55:07.538Z,3.30
2022-11-28T19:57:37.488Z,3.30
2022-11-28T20:00:06.920Z,3.30
2022-11-28T20:02:36.859Z,3.30
2022-11-28T20:05:05.231Z,3.30
2022-11-28T20:07:33.479Z,3.30
2022-11-28T20:10:01.712Z,3.30
2022-11-28T20:12:29.917Z,3.40
2022-11-28T20:14:58.163Z,3.40
2022-11-28T20:17:26.405Z,3.30
2022-11-28T20:19:55.952Z,3.30
2022-11-28T20:22:24.861Z,3.30
2022-11-28T20:24:53.045Z,3.20
2022-11-28T20:27:21.358Z,3.20
2022-11-28T20:29:49.574Z,3.20
2022-11-28T20:32:17.831Z,3.20
2022-11-28T20:34:46.444Z,3.20
2022-11-28T20:37:16.039Z,3.20
2022-11-28T20:39:44.467Z,3.20
2022-11-28T20:42:12.932Z,3.30
2022-11-28T20:44:41.179Z,3.20
2022-11-28T20:47:11.044Z,3.20
2022-11-28T20:49:39.266Z,3.20
2022-11-28T20:52:07.623Z,3.20
2022-11-28T20:54:37.251Z,3.10
2022-11-28T20:57:20.364Z,3.10
2022-11-28T20:59:49.765Z,3.10
2022-11-28T21:02:18.099Z,3.10
2022-11-28T21:04:46.495Z,3.10
2022-11-28T21:07:14.809Z,3.00
2022-11-28T21:09:44.685Z,3.00
2022-11-28T21:12:16.673Z,3.10
2022-11-28T21:14:47.785Z,3.00
2022-11-28T21:17:15.996Z,3.00
2022-11-28T21:19:44.443Z,3.10
2022-11-28T21:22:12.904Z,3.00
2022-11-28T21:24:41.107Z,3.00
2022-11-28T21:27:10.757Z,3.00
2022-11-28T21:29:38.951Z,3.00
2022-11-28T21:32:07.847Z,3.00
2022-11-28T21:34:36.159Z,3.10
2022-11-28T21:37:04.376Z,3.10
2022-11-28T21:39:32.771Z,3.00
2022-11-28T21:42:02.568Z,3.00
2022-11-28T21:44:32.114Z,2.90
2022-11-28T21:47:00.339Z,3.00
2022-11-28T21:49:28.620Z,3.00
2022-11-28T21:51:56.913Z,3.00
2022-11-28T21:54:25.133Z,3.00
2022-11-28T21:56:53.380Z,3.00
2022-11-28T21:59:22.260Z,3.00
2022-11-28T22:01:51.975Z,3.00
2022-11-28T22:04:21.962Z,3.00
2022-11-28T22:06:51.274Z,3.00
2022-11-28T22:09:19.518Z,3.00
2022-11-28T22:11:47.700Z,3.00
2022-11-28T22:14:16.072Z,3.00
2022-11-28T22:16:44.354Z,3.00
2022-11-28T22:19:14.417Z,3.00
2022-11-28T22:21:51.798Z,3.00
2022-11-28T22:24:21.330Z,3.00
2022-11-28T22:26:49.560Z,3.00
2022-11-28T22:29:17.847Z,3.00
2022-11-28T22:31:46.099Z,3.00
2022-11-28T22:34:16.088Z,3.00
2022-11-28T22:36:44.288Z,3.00
2022-11-28T22:39:13.013Z,3.00
2022-11-28T22:41:41.222Z,3.00
2022-11-28T22:44:11.536Z,3.10
2022-11-28T22:46:39.760Z,3.00
2022-11-28T22:49:08.085Z,3.00
2022-11-28T22:51:37.850Z,3.00
2022-11-28T22:54:06.384Z,3.10
2022-11-28T22:56:35.906Z,3.10
2022-11-28T22:59:05.160Z,3.10
2022-11-28T23:01:34.920Z,3.10
2022-11-28T23:04:03.843Z,3.20
2022-11-28T23:06:34.426Z,3.10
2022-11-28T23:09:06.880Z,3.20
2022-11-28T23:11:37.151Z,3.10
2022-11-28T23:14:06.194Z,3.10
2022-11-28T23:16:35.670Z,3.10
2022-11-28T23:19:19.023Z,3.10
2022-11-28T23:21:49.681Z,3.10
2022-11-28T23:24:22.657Z,3.10
2022-11-28T23:26:52.040Z,3.10
2022-11-28T23:29:21.135Z,3.10
2022-11-28T23:31:49.420Z,3.10
2022-11-28T23:34:17.883Z,3.10
2022-11-28T23:36:47.578Z,3.10
2022-11-28T23:39:18.651Z,3.10
2022-11-28T23:41:47.880Z,3.10
2022-11-28T23:44:17.677Z,3.10
2022-11-28T23:46:46.433Z,3.10
2022-11-28T23:49:14.887Z,3.00
2022-11-28T23:51:43.181Z,3.00
2022-11-28T23:54:12.581Z,3.00
2022-11-28T23:56:43.021Z,3.00
2022-11-28T23:59:13.205Z,3.00
